createdAt,value
2022-09-03T00:00:19.480Z,5.50
2022-09-03T00:06:17.718Z,5.80
2022-09-03T00:11:27.380Z,5.10
2022-09-03T00:16:59.485Z,4.20
2022-09-03T00:22:29.937Z,3.80
2022-09-03T00:27:37.201Z,4.80
2022-09-03T00:32:58.827Z,5.10
2022-09-03T00:38:02.070Z,4.90
2022-09-03T00:43:28.794Z,4.20
2022-09-03T00:48:41.801Z,3.90
2022-09-03T00:54:17.322Z,4.80
2022-09-03T00:59:41.460Z,6.10
2022-09-03T01:05:05.034Z,4.00
2022-09-03T01:10:30.836Z,4.30
2022-09-03T01:15:59.868Z,5.30
2022-09-03T01:21:15.029Z,6.20
2022-09-03T01:26:23.642Z,6.90
2022-09-03T01:31:39.042Z,8.10
2022-09-03T01:36:46.926Z,5.90
2022-09-03T01:42:20.575Z,4.30
2022-09-03T01:47:50.478Z,3.90
2022-09-03T01:53:13.174Z,4.00
2022-09-03T01:58:33.513Z,3.70
2022-09-03T02:03:41.506Z,3.80
2022-09-03T02:08:44.854Z,3.40
2022-09-03T02:13:52.985Z,4.30
2022-09-03T02:19:05.915Z,3.70
2022-09-03T02:24:09.495Z,4.80
2022-09-03T02:29:13.594Z,2.50
2022-09-03T02:34:16.442Z,3.00
2022-09-03T02:39:19.671Z,3.50
2022-09-03T02:44:31.636Z,5.10
2022-09-03T02:49:34.968Z,3.20
2022-09-03T02:54:41.973Z,3.20
2022-09-03T03:04:49.322Z,3.30
2022-09-03T03:09:52.481Z,3.90
2022-09-03T03:14:56.285Z,3.90
2022-09-03T03:19:59.081Z,4.60
2022-09-03T03:25:01.977Z,5.40
2022-09-03T03:30:05.339Z,3.80
2022-09-03T03:35:08.406Z,4.50
2022-09-03T03:40:11.974Z,4.30
2022-09-03T03:45:14.928Z,4.00
2022-09-03T03:50:17.940Z,5.40
2022-09-03T03:55:21.962Z,4.60
2022-09-03T04:00:24.872Z,3.00
2022-09-03T04:05:27.653Z,6.10
2022-09-03T04:10:37.447Z,2.40
2022-09-03T04:15:41.087Z,3.30
2022-09-03T04:20:44.134Z,3.70
2022-09-03T04:25:53.195Z,2.70
2022-09-03T04:31:04.531Z,3.30
2022-09-03T04:36:12.225Z,2.90
2022-09-03T04:41:18.022Z,3.20
2022-09-03T04:46:23.576Z,2.90
2022-09-03T04:51:28.189Z,5.20
2022-09-03T04:56:34.111Z,3.40
2022-09-03T05:01:39.359Z,3.60
2022-09-03T05:06:43.641Z,4.10
2022-09-03T05:11:47.005Z,3.90
2022-09-03T05:16:53.076Z,2.90
2022-09-03T05:21:56.150Z,4.10
2022-09-03T05:26:59.108Z,2.60
2022-09-03T05:32:03.181Z,2.20
2022-09-03T05:37:06.055Z,2.40
2022-09-03T05:42:09.153Z,7.30
2022-09-03T05:47:12.084Z,4.50
2022-09-03T05:52:16.955Z,5.30
2022-09-03T05:57:19.797Z,2.40
2022-09-03T06:02:22.975Z,3.60
2022-09-03T06:07:27.668Z,4.10
2022-09-03T06:12:30.538Z,4.50
2022-09-03T06:17:33.480Z,2.10
2022-09-03T06:22:36.407Z,2.90
2022-09-03T06:27:39.256Z,2.80
2022-09-03T06:32:46.019Z,3.40
2022-09-03T06:37:49.256Z,2.90
2022-09-03T06:43:02.743Z,4.80
2022-09-03T06:48:06.068Z,3.10
2022-09-03T06:53:09.429Z,4.50
2022-09-03T06:58:12.304Z,3.10
2022-09-03T07:03:18.061Z,4.50
2022-09-03T07:08:20.879Z,2.00
2022-09-03T07:13:26.164Z,3.80
2022-09-03T07:18:29.008Z,3.00
2022-09-03T07:23:33.567Z,4.80
2022-09-03T07:28:38.498Z,2.70
2022-09-03T07:33:42.532Z,1.50
2022-09-03T07:38:45.781Z,2.20
2022-09-03T07:43:49.254Z,2.80
2022-09-03T07:48:58.176Z,1.80
2022-09-03T07:54:04.059Z,1.50
2022-09-03T07:59:07.761Z,2.00
2022-09-03T08:04:12.010Z,1.20
2022-09-03T08:09:15.024Z,1.20
2022-09-03T08:14:19.202Z,1.60
2022-09-03T08:19:23.520Z,2.20
2022-09-03T08:24:26.556Z,1.50
2022-09-03T08:29:29.355Z,1.50
2022-09-03T08:34:32.708Z,1.50
2022-09-03T08:39:35.974Z,0.90
2022-09-03T08:44:50.030Z,3.10
2022-09-03T08:50:18.326Z,1.70
2022-09-03T08:55:34.490Z,1.10
2022-09-03T09:00:40.200Z,2.50
2022-09-03T09:06:07.291Z,1.40
2022-09-03T09:11:48.801Z,1.80
2022-09-03T09:16:57.536Z,3.90
2022-09-03T09:22:38.560Z,1.80
2022-09-03T09:27:55.266Z,3.50
2022-09-03T09:33:00.633Z,0.50
2022-09-03T09:38:03.874Z,1.10
2022-09-03T09:43:12.385Z,0.80
2022-09-03T09:48:33.725Z,1.40
2022-09-03T09:53:36.914Z,1.60
2022-09-03T09:58:40.173Z,2.20
2022-09-03T10:03:58.156Z,0.40
2022-09-03T10:09:12.708Z,1.20
2022-09-03T10:14:24.229Z,0.80
2022-09-03T10:20:14.764Z,0.60
2022-09-03T10:25:21.296Z,2.90
2022-09-03T10:30:25.478Z,0.90
2022-09-03T10:35:42.521Z,0.70
2022-09-03T10:41:03.391Z,0.80
2022-09-03T10:46:29.007Z,0.80
2022-09-03T10:52:10.034Z,1.90
2022-09-03T10:57:25.102Z,1.10
2022-09-03T11:03:00.320Z,1.70
2022-09-03T11:08:10.149Z,1.40
2022-09-03T11:13:18.963Z,1.50
2022-09-03T11:18:27.215Z,1.00
2022-09-03T11:23:36.457Z,1.30
2022-09-03T11:28:52.131Z,1.80
2022-09-03T11:34:06.442Z,1.80
2022-09-03T11:44:22.123Z,2.40
2022-09-03T11:49:33.663Z,1.30
2022-09-03T11:54:47.148Z,1.00
2022-09-03T11:59:50.409Z,0.70
2022-09-03T12:05:19.640Z,1.10
2022-09-03T12:10:41.855Z,1.30
2022-09-03T12:16:08.641Z,0.70
2022-09-03T12:21:11.764Z,1.30
2022-09-03T12:26:20.646Z,2.00
2022-09-03T12:31:31.242Z,10.50
2022-09-03T12:36:41.608Z,6.30
2022-09-03T12:42:05.839Z,2.10
2022-09-03T12:52:45.265Z,1.20
2022-09-03T12:58:02.192Z,1.60
2022-09-03T13:03:16.501Z,2.40
2022-09-03T13:08:23.813Z,2.60
2022-09-03T13:13:30.143Z,2.80
2022-09-03T13:24:06.631Z,3.10
2022-09-03T13:29:15.391Z,3.40
2022-09-03T13:34:38.419Z,4.30
2022-09-03T13:39:51.338Z,1.50
2022-09-03T13:45:06.355Z,1.60
2022-09-03T13:50:24.381Z,3.10
2022-09-03T13:55:43.588Z,1.60
2022-09-03T14:00:54.311Z,0.70
2022-09-03T14:06:08.982Z,1.50
2022-09-03T14:11:28.063Z,2.30
2022-09-03T14:17:00.240Z,1.00
2022-09-03T14:22:49.820Z,2.60
2022-09-03T14:27:54.788Z,1.40
2022-09-03T14:33:24.655Z,1.40
2022-09-03T14:38:27.563Z,1.10
2022-09-03T14:43:51.770Z,0.90
2022-09-03T14:49:14.684Z,1.30
2022-09-03T14:54:36.300Z,1.60
2022-09-03T15:00:01.452Z,1.20
2022-09-03T15:05:31.155Z,0.80
2022-09-03T15:10:46.990Z,0.80
2022-09-03T15:16:01.773Z,1.40
2022-09-03T15:21:29.448Z,2.00
2022-09-03T15:26:41.886Z,2.00
2022-09-03T15:32:23.341Z,1.10
2022-09-03T15:37:34.661Z,2.40
2022-09-03T15:42:38.676Z,2.10
2022-09-03T15:47:51.910Z,2.80
2022-09-03T15:52:55.119Z,1.30
2022-09-03T15:58:19.491Z,1.10
2022-09-03T16:03:56.191Z,2.40
2022-09-03T16:09:09.760Z,1.80
2022-09-03T16:14:22.251Z,2.10
2022-09-03T16:19:38.417Z,1.80
2022-09-03T16:24:51.593Z,0.90
2022-09-03T16:29:59.706Z,2.20
2022-09-03T16:35:09.365Z,1.60
2022-09-03T16:40:37.116Z,2.40
2022-09-03T16:45:43.105Z,3.30
2022-09-03T16:51:04.509Z,4.40
2022-09-03T16:56:39.719Z,3.30
2022-09-03T17:01:52.765Z,2.60
2022-09-03T17:07:04.026Z,2.60
2022-09-03T17:12:28.196Z,2.70
2022-09-03T17:17:44.213Z,3.80
2022-09-03T17:22:56.136Z,2.40
2022-09-03T17:28:21.448Z,3.40
2022-09-03T17:33:35.731Z,4.80
2022-09-03T17:39:06.957Z,2.90
2022-09-03T17:44:27.309Z,3.50
2022-09-03T17:49:41.483Z,3.40
2022-09-03T17:54:49.609Z,3.20
2022-09-03T18:00:05.591Z,4.70
2022-09-03T18:05:24.167Z,3.80
2022-09-03T18:10:42.067Z,4.00
2022-09-03T18:15:51.992Z,4.90
2022-09-03T18:21:27.766Z,2.50
2022-09-03T18:26:56.053Z,2.20
2022-09-03T18:32:18.923Z,2.10
2022-09-03T18:37:44.156Z,3.90
2022-09-03T18:43:24.399Z,4.20
2022-09-03T18:49:07.977Z,3.60
2022-09-03T18:55:08.651Z,2.70
2022-09-03T19:00:34.901Z,3.30
2022-09-03T19:06:34.975Z,3.80
2022-09-03T19:12:15.223Z,4.20
2022-09-03T19:17:45.548Z,3.20
2022-09-03T19:23:06.734Z,4.40
2022-09-03T19:28:42.279Z,4.00
2022-09-03T19:34:10.795Z,5.20
2022-09-03T19:39:43.982Z,5.40
2022-09-03T19:45:29.143Z,4.50
2022-09-03T19:50:56.353Z,3.50
2022-09-03T19:56:22.488Z,5.80
2022-09-03T20:01:51.714Z,4.10
2022-09-03T20:07:16.249Z,3.90
2022-09-03T20:12:23.343Z,6.00
2022-09-03T20:17:49.189Z,3.60
2022-09-03T20:23:03.333Z,4.40
2022-09-03T20:28:33.811Z,5.10
2022-09-03T20:33:57.911Z,5.70
2022-09-03T20:39:15.754Z,6.30
2022-09-03T20:44:26.216Z,6.00
2022-09-03T20:50:04.423Z,3.70
2022-09-03T20:55:19.848Z,5.60
2022-09-03T21:00:23.770Z,4.00
2022-09-03T21:05:52.691Z,5.10
2022-09-03T21:11:10.159Z,4.70
2022-09-03T21:16:37.893Z,4.20
2022-09-03T21:21:52.733Z,5.60
2022-09-03T21:27:11.199Z,3.80
2022-09-03T21:32:20.426Z,4.80
2022-09-03T21:37:24.664Z,5.60
2022-09-03T21:42:46.261Z,4.80
2022-09-03T21:47:54.016Z,3.60
2022-09-03T21:53:13.639Z,5.00
2022-09-03T21:58:25.924Z,3.90
2022-09-03T22:03:29.111Z,5.40
2022-09-03T22:08:46.441Z,5.60
2022-09-03T22:13:59.221Z,5.10
2022-09-03T22:19:02.219Z,4.40
2022-09-03T22:24:58.988Z,8.70
2022-09-03T22:30:11.508Z,4.90
2022-09-03T22:35:23.352Z,4.30
2022-09-03T22:40:35.409Z,4.70
2022-09-03T22:46:05.774Z,3.90
2022-09-03T22:51:09.371Z,4.40
2022-09-03T22:56:15.978Z,4.90
2022-09-03T23:01:34.989Z,5.00
2022-09-03T23:06:51.162Z,4.50
2022-09-03T23:12:29.948Z,4.00
2022-09-03T23:17:40.101Z,4.40
2022-09-03T23:22:59.537Z,5.70
2022-09-03T23:28:20.941Z,4.80
2022-09-03T23:33:23.768Z,3.50
2022-09-03T23:39:05.127Z,3.60
2022-09-03T23:44:46.022Z,5.70
2022-09-03T23:50:27.155Z,3.00
2022-09-03T23:55:52.369Z,3.10
